X  Close Metar Aviation Weather Data     EHAM Amsterdam Airport Schiphol
Temperature
19°C Temperature
15°C Dewpoint
78% Humidity



Wind
37 KM/H
23 MPH
10 M/S
20 KTS



220°
SW
Current Conditions

Light Showers, Rain Light Showers, Rain
Pressure 1006.92 (hPa) - 29.73 (inHg)
Visibility 6.2 (mile) - 10 (km)
Airport
Airport-code EHAM

Location: Amsterdam Airport Schiphol
Distance: 32 (km)

Metar:
EHAM 281155Z 22020KT 190V260 9999 -SHRA FEW018CB SCT022 19/15 Q1007 BECMG 9999 NSW SCT025

Time: 28-07-2021 13:55 CEST